createdAt,value
2022-08-07T00:10:31.771Z,18.7
2022-08-07T00:39:25.518Z,18.4
2022-08-07T01:08:55.505Z,17.7
2022-08-07T01:37:36.243Z,17.2
2022-08-07T02:06:32.862Z,16.7
2022-08-07T02:36:27.289Z,16.2
2022-08-07T03:04:24.563Z,15.6
2022-08-07T03:33:21.251Z,15.1
2022-08-07T04:02:49.682Z,14.6
2022-08-07T04:32:02.863Z,14.4
2022-08-07T05:00:32.296Z,14.3
2022-08-07T05:29:15.387Z,14.6
2022-08-07T05:58:37.008Z,15
2022-08-07T06:27:33.675Z,15.8
2022-08-07T06:56:16.129Z,17.1
2022-08-07T07:26:31.851Z,18.6
2022-08-07T07:54:13.738Z,20.3
2022-08-07T08:23:26.335Z,22
2022-08-07T08:52:19.385Z,23.4
2022-08-07T09:21:58.506Z,24.8
2022-08-07T09:50:30.464Z,26
2022-08-07T10:19:21.755Z,27
2022-08-07T10:48:47.318Z,28.2
2022-08-07T11:18:04.650Z,29.6
2022-08-07T11:46:57.942Z,31
2022-08-07T12:16:37.530Z,36
2022-08-07T12:45:53.335Z,31
2022-08-07T13:14:51.332Z,29.2
2022-08-07T13:43:34.668Z,28.9
2022-08-07T14:12:41.759Z,30.3
2022-08-07T14:42:18.391Z,36.5
2022-08-07T15:10:58.612Z,38.7
2022-08-07T16:08:38.793Z,30.7
2022-08-07T16:38:02.698Z,30.5
2022-08-07T17:06:31.685Z,32.9
2022-08-07T17:35:41.553Z,29.7
2022-08-07T18:04:07.920Z,28
2022-08-07T18:32:48.603Z,27.1
2022-08-07T19:02:33.273Z,26.1
2022-08-07T19:31:29.861Z,25.3
2022-08-07T19:59:59.320Z,24.6
2022-08-07T20:29:46.605Z,23.9
2022-08-07T20:58:08.960Z,23.3
2022-08-07T21:26:50.745Z,22.5
2022-08-07T21:55:46.943Z,21.7
2022-08-07T22:24:40.502Z,20.8
2022-08-07T22:54:09.483Z,20
2022-08-07T23:22:53.401Z,19.3
2022-08-07T23:52:59.322Z,18.6
